Pagrindinis puslapis
METAR-TAF:

METAR-TAF

Oro uostai :

Džida, Saudo Arabija

platuma: 21-42N, ilguma: 039-11E, Aukštis: 15 m

Dabartinis oras

Ataskaita buvo paskelbta 19 minutes, ne 14:00 UTC
Vėjas 12 kt iš Vakarų/Šiaurės Vakarų
Temperatūra 33°C
Drėgmė 39%
Slėgis 1005 hPa
Matomumas: 4500 m
Dulkes pustymas,

METAR: OEJN 201400Z 29012KT 4500 BLDU NSC 33/17 Q1005 NOSIG

Laikas: 17:19 (14:19 UTC)

Prognozė

Ataskaita buvo paskelbta 3 valandos ir 19 minutes, ne 11:00 UTC
Prognozė galioja nuo 20 metu 12 UTC su 21 metu 18 UTC
Vėjas 10 kt iš Šiaurės Vakarų
Matomumas: 7000 m
Tapsmas
nuo 20 metu 18 UTC su 20 metu 20 UTC
Vėjas 6 kt iš Šiaurės/Šiaurės Rytų
Tapsmas
nuo 21 metu 06 UTC su 21 metu 08 UTC
Vėjas 12 kt iš Šiaurės
Matomumas 10 km arba daugiau
nėra debesų žemiau 1500 m ir nėra kamuolinių lietaus debesų

TAF: OEJN 201100Z 2012/2118 32010KT 7000 NSC BECMG 2018/2020 02006KT BECMG 2106/2108 36012KT CAVOK

Orai ataskaitas ir orų prognozės (METAR, TAF).

turimą stotys yra geltonos ir raudonos taškus žemėlapyje.

Perkelti pele per norėdami pamatyti stoties vardą.

Tada spustelėkite, norėdami matyti oro stebėjimo ir prognozės.

Norėdami pakeisti žemėlapį: spustelėkite ant žalios mygtukų su juodo kryžiaus žemyn,; žalią mygtuką su brūkšneliu, jei norite nutolinti; arba žalių rodyklių gretimoms žemėlapius.


METAR-TAF: